FLIGHT DETAILS
Pilot: SER002 Arthur De Nardi Aircraft: PMDG MD-11F GE SERRANA LOG PT-SEB Distance: 1115NM
Departure SBEG Arrival TNCC Duration 2.43
Validation Validated Type Regular Tail Number PT-SEB
ZFW 174977 Block Fuel/Initial FOB 20,783/0 Flight Fuel 18,938
Passengers 0 Cargo 89325 Alternate TNCA
Departure Time Cruise Speed Flight Level 380
Flight Type IFR Aircraft Type MD-11F SEB Weight Unit Kg
Date 13-12-18 Pilot Comments Network IVAO
Crashed No Validator Comments Flight Rating 100

 ROUTE
ROUTE KAMIR UL795 BIVUT UM409 VUMPI UL795 LOGON UL793 ALGOK DCT ALCOT
REMARKS
 FLIGHT FAILURES
Crashed OK Beacon off & Engine Running OK KIAS Above 250 below 10000 FT Fail
Lights OFF below 10000 FT OK Lights ON above 10000 FT OK Stall OK
Overspeed OK Flight paused OK Refueling OK
Slew detected OK Taxi & Taxi lights off Fail Take off & lights off OK
Landing & lights off OK Landed in not planned airport OK Taxi Speed OK
Wrong altimeter in Take off OK Wrong altimeter in Landing OK
 LANDING ANALYSIS
Landing wind 100º/13 kt Landing heading 146
Landing VS: -136.87 ft/min Landing IAS: 135.2 kt
Landing Force G 1 G Landing Bank 0.3
Landing Pitch 6.9 Landing Flaps 29
Navigation Lights ON Landing Lights ON
Beacon Lights ON Strobe Lights ON
 FLIGHT MAP
 ALTITUDE CHART
 FLIGHT FINANCIAL REPORT
Cargo:89325 .Price per Cargo Unit:90000 8,039,250,000.00
TOTAL 8,039,249,920.00
 MAIN EVENTS
DATE EVENTIASALTITUDE
2018-12-13 19:21:07 SIM ACARS version 1.4.11277
2018-12-13 19:21:07 BOARDING1277
2018-12-13 19:40:02 PUSHBACK1277
2018-12-13 19:40:34 STARTING ENGINE 3 0277
2018-12-13 19:41:27 FLAPS EXTENSION 12 % 5277
2018-12-13 19:41:28 FLAPS EXTENSION 25 % 5277
2018-12-13 19:41:28 FLAPS EXTENSION 25 % 5277
2018-12-13 19:41:33 FLAPS EXTENSION 37 % 5277
2018-12-13 19:41:33 FLAPS EXTENSION 37 % 5277
2018-12-13 19:41:34 FLAPS EXTENSION 12 % 5277
2018-12-13 19:41:38 FLAPS EXTENSION 37 % 5277
2018-12-13 19:41:41 STARTING ENGINE 1 5277
2018-12-13 19:42:27 STARTING ENGINE 2 5277
2018-12-13 19:55:42 TAXI TO THE RWY 14277
2018-12-13 19:55:42 TAXING WITH TAXI LIGHTS OFF14277
2018-12-13 20:12:02 ROLLING FOR TAKE OFF44277
2018-12-13 20:12:22 TAKE OFF171280
2018-12-13 20:12:25 GEAR UP179294
2018-12-13 20:13:21 FLAPS EXTENSION 25 % 1823518
2018-12-13 20:13:23 FLAPS EXTENSION 37 % 1833603
2018-12-13 20:13:24 FLAPS EXTENSION 25 % 1843640
2018-12-13 20:13:25 FLAPS EXTENSION 12 % 1853674
2018-12-13 20:13:55 FLAPS EXTENSION 0 % 2484076
2018-12-13 20:14:13 CRUISE2554062
2018-12-13 20:16:21 IAS ABOVE 250 KNOTS BELOW 10000 ft2614365
2018-12-13 20:16:33 CLIMBING2595395
2018-12-13 20:32:24 CRUISE26937990
2018-12-13 22:20:09 DESCEND27337328
2018-12-13 22:35:09 FLAPS EXTENSION 12 % 2478359
2018-12-13 22:35:13 FLAPS EXTENSION 25 % 2478267
2018-12-13 22:35:19 FLAPS EXTENSION 37 % 2458133
2018-12-13 22:35:20 FLAPS EXTENSION 12 % 2448110
2018-12-13 22:35:22 FLAPS EXTENSION 37 % 2438066
2018-12-13 22:35:23 FLAPS EXTENSION 37 % 2428061
2018-12-13 22:38:23 FLAPS EXTENSION 50 % 1824509
2018-12-13 22:38:25 FLAPS EXTENSION 37 % 1824485
2018-12-13 22:38:25 FLAPS EXTENSION 50 % 1824482
2018-12-13 22:38:26 FLAPS EXTENSION 37 % 1824463
2018-12-13 22:38:29 FLAPS EXTENSION 50 % 1824436
2018-12-13 22:38:32 FLAPS EXTENSION 62 % 1824408
2018-12-13 22:38:34 FLAPS EXTENSION 75 % 1814394
2018-12-13 22:40:34 GEAR DOWN1643075
2018-12-13 22:40:44 FLAPS EXTENSION 87 % 1622920
2018-12-13 22:40:46 FLAPS EXTENSION 100 % 1632900
2018-12-13 22:40:47 FLAPS EXTENSION 87 % 1622889
2018-12-13 22:40:47 FLAPS EXTENSION 87 % 1622888
2018-12-13 22:40:52 FLAPS EXTENSION 100 % 1622838
2018-12-13 22:40:52 FLAPS EXTENSION 100 % 1622834
2018-12-13 22:44:50 CRUISE15366
2018-12-13 22:45:00 LANDING13545
2018-12-13 22:45:21 FLAPS EXTENSION 0 % 5342
2018-12-13 22:45:25 FLAPS EXTENSION 87 % 5142
2018-12-13 22:45:32 FLAPS EXTENSION 75 % 4742
2018-12-13 22:45:32 FLAPS EXTENSION 75 % 4742
2018-12-13 22:45:35 FLAPS EXTENSION 62 % 4442
2018-12-13 22:45:37 FLAPS EXTENSION 50 % 4342
2018-12-13 22:45:37 FLAPS EXTENSION 50 % 4342
2018-12-13 22:45:39 FLAPS EXTENSION 37 % 4242
2018-12-13 22:45:41 FLAPS EXTENSION 25 % 4142
2018-12-13 22:45:41 FLAPS EXTENSION 25 % 4142
2018-12-13 22:45:42 FLAPS EXTENSION 12 % 4142
2018-12-13 22:45:47 FLAPS EXTENSION 0 % 3942
2018-12-13 22:46:18 TAXI TO THE GATE2042
2018-12-13 22:51:35 STOPPING ENGINE 2 942
2018-12-13 22:51:40 STOPPING ENGINE 1 942
2018-12-13 22:51:40 STOPPING ENGINE 3 942
 ACARS DATA
There was an error running the query [The SELECT would examine more than MAX_JOIN_SIZE rows; check your WHERE and use SET SQL_BIG_SELECTS=1 or SET MAX_JOIN_SIZE=# if the SELECT is okay]